Time;durP1;ratioP1;P1;durP2;ratioP2;P2;SDS_P1;SDS_P2;PMS_P1;PMS_P2;Temp;Humidity;BMP_temperature;BMP_pressure;BME280_temperature;BME280_humidity;BME280_pressure;Samples;Min_cycle;Max_cycle;Signal;HPM_P1;HPM_P2
2022/01/01 00:00:14;;;;;;;12.23;7.90;;;4.70;99.90;;;;;;4991555;28;20242;-64
2022/01/01 00:02:40;;;;;;;14.77;8.63;;;4.70;99.90;;;;;;4991348;28;20218;-64
2022/01/01 00:05:09;;;;;;;16.87;9.10;;;4.70;99.90;;;;;;4991782;28;20204;-65
2022/01/01 00:07:38;;;;;;;14.50;8.73;;;4.70;99.90;;;;;;4991643;28;20676;-66
2022/01/01 00:10:06;;;;;;;14.13;8.57;;;4.70;99.90;;;;;;4989304;28;20195;-66
2022/01/01 00:12:33;;;;;;;14.47;8.17;;;4.70;99.90;;;;;;4991557;28;20191;-64
2022/01/01 00:15:00;;;;;;;15.53;8.33;;;4.70;99.90;;;;;;4991690;28;20203;-64
2022/01/01 00:17:28;;;;;;;13.53;8.33;;;4.70;99.90;;;;;;4991164;28;20195;-65
2022/01/01 00:19:55;;;;;;;15.00;8.60;;;4.70;99.90;;;;;;4991570;28;20199;-64
2022/01/01 00:22:21;;;;;;;15.23;8.80;;;4.70;99.90;;;;;;4990851;28;20227;-64
2022/01/01 00:24:48;;;;;;;12.73;8.20;;;4.80;99.90;;;;;;4992158;28;20238;-65
2022/01/01 00:27:15;;;;;;;14.17;8.43;;;4.80;99.90;;;;;;4995883;28;20242;-62
2022/01/01 00:29:42;;;;;;;13.37;8.10;;;4.80;99.90;;;;;;4995535;28;20207;-64
2022/01/01 00:32:09;;;;;;;13.97;8.40;;;4.80;99.90;;;;;;4995997;28;20203;-65
2022/01/01 00:34:37;;;;;;;14.23;7.83;;;4.80;99.90;;;;;;4995624;28;20204;-64
2022/01/01 00:37:05;;;;;;;13.77;8.67;;;4.70;99.90;;;;;;4995511;28;20212;-64
2022/01/01 00:39:32;;;;;;;12.23;8.13;;;4.70;99.90;;;;;;4995319;28;20660;-65
2022/01/01 00:41:59;;;;;;;13.60;8.00;;;4.70;99.90;;;;;;4982191;28;20224;-63
2022/01/01 00:44:26;;;;;;;13.93;8.43;;;4.80;99.90;;;;;;4976012;28;20677;-64
2022/01/01 00:46:52;;;;;;;14.80;8.47;;;4.80;99.90;;;;;;4976239;28;20806;-64
2022/01/01 00:49:20;;;;;;;13.10;7.90;;;4.80;99.90;;;;;;4976220;28;20691;-64
2022/01/01 00:51:49;;;;;;;15.47;8.80;;;4.80;99.90;;;;;;4976295;28;20259;-65
2022/01/01 00:54:15;;;;;;;14.53;8.37;;;4.80;99.90;;;;;;4975849;28;20216;-63
2022/01/01 00:56:42;;;;;;;16.80;8.90;;;4.80;99.90;;;;;;4975899;28;20212;-66
2022/01/01 00:59:09;;;;;;;13.27;8.10;;;4.80;99.90;;;;;;4975690;28;20244;-64
2022/01/01 01:01:36;;;;;;;15.03;9.33;;;4.80;99.90;;;;;;4975781;28;20248;-63
2022/01/01 01:04:03;;;;;;;14.03;8.20;;;4.80;99.90;;;;;;4994196;28;20660;-64
2022/01/01 01:06:30;;;;;;;17.63;9.67;;;4.80;99.90;;;;;;4995134;28;20215;-65
2022/01/01 01:09:00;;;;;;;21.27;9.90;;;4.90;99.90;;;;;;4994821;28;20210;-64
2022/01/01 01:11:27;;;;;;;25.63;13.27;;;4.90;99.90;;;;;;4994954;28;20290;-63
2022/01/01 01:13:58;;;;;;;23.60;11.60;;;4.90;99.90;;;;;;4994939;28;20207;-64
2022/01/01 01:16:25;;;;;;;15.87;8.83;;;4.90;99.90;;;;;;4995000;28;20278;-65
2022/01/01 01:18:54;;;;;;;12.97;8.43;;;4.90;99.90;;;;;;4994645;28;20204;-63
2022/01/01 01:21:21;;;;;;;16.50;9.33;;;5.00;99.90;;;;;;4994902;28;20231;-64
2022/01/01 01:23:49;;;;;;;12.87;7.93;;;5.00;99.90;;;;;;4994980;28;20562;-64
2022/01/01 01:26:17;;;;;;;12.20;7.57;;;5.00;99.90;;;;;;4994607;28;20720;-64
2022/01/01 01:28:48;;;;;;;15.80;8.20;;;5.10;99.90;;;;;;4994905;28;20664;-64
2022/01/01 01:31:15;;;;;;;13.70;8.37;;;5.10;99.90;;;;;;4994758;28;20195;-65
2022/01/01 01:33:42;;;;;;;11.93;7.63;;;5.10;99.90;;;;;;4994888;28;20642;-64
2022/01/01 01:36:09;;;;;;;13.37;7.43;;;5.20;99.90;;;;;;4993449;28;20204;-64
2022/01/01 01:38:36;;;;;;;15.97;8.17;;;5.20;99.90;;;;;;4994345;28;20623;-64
2022/01/01 01:41:04;;;;;;;11.83;7.03;;;5.30;99.90;;;;;;4994331;28;20251;-64
2022/01/01 01:43:32;;;;;;;11.97;7.07;;;5.30;99.90;;;;;;4994378;28;20203;-63
2022/01/01 01:46:03;;;;;;;13.07;7.67;;;5.30;99.90;;;;;;4994074;28;20241;-65
2022/01/01 01:48:30;;;;;;;13.57;7.30;;;5.40;99.90;;;;;;4994355;28;20219;-63
2022/01/01 01:50:58;;;;;;;12.80;7.90;;;5.40;99.90;;;;;;4994384;28;20204;-64
2022/01/01 01:53:25;;;;;;;12.63;7.53;;;5.40;99.90;;;;;;4993959;28;20206;-64
2022/01/01 01:55:51;;;;;;;13.10;7.43;;;5.50;99.90;;;;;;4993839;28;20214;-64
2022/01/01 01:58:18;;;;;;;12.73;7.57;;;5.40;99.90;;;;;;4993586;28;20226;-62
2022/01/01 02:01:20;;;;;;;15.20;8.37;;;5.50;99.90;;;;;;4992845;28;20203;-64
2022/01/01 02:03:47;;;;;;;18.23;9.00;;;5.50;99.90;;;;;;4988298;28;20199;-62
2022/01/01 02:06:15;;;;;;;19.47;9.33;;;5.50;99.90;;;;;;4993535;28;20211;-64
2022/01/01 02:08:43;;;;;;;15.93;8.57;;;5.60;99.90;;;;;;4993799;28;20676;-64
2022/01/01 02:11:10;;;;;;;19.47;8.87;;;5.60;99.90;;;;;;4993572;28;20207;-65
2022/01/01 02:13:39;;;;;;;20.37;9.87;;;5.70;99.90;;;;;;4993554;28;20355;-63
2022/01/01 02:19:00;;;;;;;20.10;9.63;;;5.70;99.90;;;;;;4976054;28;20195;-63
2022/01/01 02:21:29;;;;;;;15.37;8.90;;;5.80;99.90;;;;;;4992763;28;20211;-64
2022/01/01 02:23:59;;;;;;;27.00;10.73;;;5.80;99.90;;;;;;4993465;28;20209;-64
2022/01/01 02:26:32;;;;;;;18.27;9.07;;;5.90;99.90;;;;;;4993480;28;20192;-65
2022/01/01 02:29:00;;;;;;;17.40;10.13;;;5.90;99.90;;;;;;4993499;28;20230;-63
2022/01/01 02:31:27;;;;;;;18.93;10.20;;;5.90;99.90;;;;;;4992721;28;20211;-65
2022/01/01 02:33:54;;;;;;;16.93;9.87;;;6.00;99.90;;;;;;4993277;28;20204;-65
2022/01/01 02:36:35;;;;;;;19.97;10.60;;;6.00;99.90;;;;;;4992989;28;20738;-63
2022/01/01 02:39:10;;;;;;;21.77;10.77;;;6.10;99.90;;;;;;4993459;28;20243;-64
2022/01/01 02:41:36;;;;;;;21.73;11.20;;;6.10;99.90;;;;;;4993039;28;20541;-65
2022/01/01 02:44:05;;;;;;;23.83;12.10;;;6.20;99.90;;;;;;4993143;28;20226;-64
2022/01/01 02:46:32;;;;;;;25.13;12.37;;;6.20;99.90;;;;;;4993269;28;20214;-64
2022/01/01 02:48:59;;;;;;;22.80;12.53;;;6.20;99.90;;;;;;4992894;28;20307;-66
2022/01/01 02:51:26;;;;;;;29.17;13.57;;;6.20;99.90;;;;;;4992386;28;20211;-65
2022/01/01 02:53:55;;;;;;;26.23;12.60;;;6.30;99.90;;;;;;4993121;28;20231;-64
2022/01/01 02:56:21;;;;;;;28.00;14.33;;;6.30;99.90;;;;;;4992904;28;20207;-63
2022/01/01 02:58:48;;;;;;;27.07;14.00;;;6.30;99.90;;;;;;4992711;28;20239;-65
2022/01/01 03:01:15;;;;;;;30.40;14.47;;;6.40;99.90;;;;;;4992214;28;20203;-64
2022/01/01 03:03:42;;;;;;;31.27;15.37;;;6.40;99.90;;;;;;4992947;28;20230;-64
2022/01/01 03:06:09;;;;;;;36.33;16.10;;;6.50;99.90;;;;;;4992694;28;20203;-64
2022/01/01 03:08:36;;;;;;;30.33;15.30;;;6.50;99.90;;;;;;4992716;28;20214;-66
2022/01/01 03:11:05;;;;;;;36.10;16.10;;;6.50;99.90;;;;;;4991911;28;20203;-65
2022/01/01 03:13:32;;;;;;;37.00;17.63;;;6.60;99.90;;;;;;4992860;28;20207;-64
2022/01/01 03:15:59;;;;;;;33.57;16.83;;;6.60;99.90;;;;;;4992580;28;20211;-67
2022/01/01 03:18:26;;;;;;;35.70;16.70;;;6.60;99.90;;;;;;4992682;28;20629;-65
2022/01/01 03:20:52;;;;;;;34.83;16.93;;;6.70;99.90;;;;;;4992485;28;20204;-65
2022/01/01 03:23:19;;;;;;;46.13;18.43;;;6.70;99.90;;;;;;4992133;28;20230;-65
2022/01/01 03:25:46;;;;;;;34.30;16.63;;;6.70;99.90;;;;;;4992573;28;20214;-65
2022/01/01 03:28:14;;;;;;;33.70;16.70;;;6.70;99.90;;;;;;4992265;28;20593;-64
2022/01/01 03:30:41;;;;;;;36.40;17.53;;;6.80;99.90;;;;;;4992470;28;20221;-64
2022/01/01 03:33:08;;;;;;;38.90;18.10;;;6.80;99.90;;;;;;4991894;28;20212;-65
2022/01/01 03:35:35;;;;;;;34.60;17.63;;;6.80;99.90;;;;;;4992346;28;20207;-64
2022/01/01 03:38:01;;;;;;;32.13;16.50;;;6.80;99.90;;;;;;4991907;28;20210;-65
2022/01/01 03:40:28;;;;;;;31.70;16.83;;;6.90;99.90;;;;;;4992234;28;20215;-65
2022/01/01 03:42:55;;;;;;;31.73;16.33;;;6.90;99.90;;;;;;4992323;28;20692;-65
2022/01/01 03:45:23;;;;;;;34.47;16.83;;;6.90;99.90;;;;;;4992366;28;20203;-66
2022/01/01 03:47:50;;;;;;;29.50;16.60;;;7.00;99.90;;;;;;4991739;28;20203;-65
2022/01/01 03:50:17;;;;;;;35.03;17.67;;;7.00;99.90;;;;;;4991894;28;20211;-65
2022/01/01 03:52:44;;;;;;;35.07;17.33;;;7.00;99.90;;;;;;4992342;28;20723;-65
2022/01/01 03:55:12;;;;;;;32.37;17.27;;;7.00;99.90;;;;;;4991598;28;20246;-65
2022/01/01 03:57:39;;;;;;;34.60;17.53;;;7.10;99.90;;;;;;4991852;28;20561;-65
2022/01/01 04:00:09;;;;;;;31.53;17.23;;;7.10;99.90;;;;;;4992884;28;20547;-66
2022/01/01 04:02:37;;;;;;;34.23;17.27;;;7.10;99.90;;;;;;4996090;28;20231;-65
2022/01/01 04:05:05;;;;;;;33.83;17.20;;;7.10;99.90;;;;;;4995849;28;20219;-65
2022/01/01 04:07:32;;;;;;;34.07;17.67;;;7.20;99.90;;;;;;4995309;28;20211;-64
2022/01/01 04:09:59;;;;;;;36.43;17.97;;;7.20;99.90;;;;;;4995577;28;20218;-64
2022/01/01 04:12:26;;;;;;;31.33;17.83;;;7.20;99.90;;;;;;4995795;28;20207;-65
2022/01/01 04:14:53;;;;;;;30.83;16.30;;;7.20;99.90;;;;;;4995994;28;20214;-66
2022/01/01 04:17:20;;;;;;;33.13;17.73;;;7.20;99.90;;;;;;4995870;28;20688;-67
2022/01/01 04:19:48;;;;;;;33.63;17.43;;;7.30;99.90;;;;;;4996042;28;20203;-64
2022/01/01 04:22:16;;;;;;;30.70;17.50;;;7.30;99.90;;;;;;4995446;28;20254;-64
2022/01/01 04:24:43;;;;;;;29.73;16.03;;;7.30;99.90;;;;;;4995619;28;20215;-64
2022/01/01 04:27:10;;;;;;;28.90;15.83;;;7.30;99.90;;;;;;4995477;28;20547;-65
2022/01/01 04:29:38;;;;;;;27.17;15.77;;;7.30;99.90;;;;;;4995534;28;20211;-65
2022/01/01 04:32:06;;;;;;;26.00;15.27;;;7.30;99.90;;;;;;4995447;28;20253;-66
2022/01/01 04:34:32;;;;;;;25.93;14.37;;;7.40;99.90;;;;;;4995754;28;20730;-64
2022/01/01 04:37:03;;;;;;;24.53;14.33;;;7.40;99.90;;;;;;4995322;28;20200;-64
2022/01/01 04:39:30;;;;;;;26.20;14.30;;;7.40;99.90;;;;;;4995894;28;20555;-67
2022/01/01 04:41:57;;;;;;;24.47;14.30;;;7.40;99.90;;;;;;4995125;28;20211;-66
2022/01/01 04:44:23;;;;;;;24.27;14.07;;;7.40;99.90;;;;;;4995553;28;20229;-67
2022/01/01 04:46:50;;;;;;;24.00;13.77;;;7.50;99.90;;;;;;4994691;28;20222;-65
2022/01/01 04:49:17;;;;;;;23.10;13.33;;;7.50;99.90;;;;;;4995559;28;20577;-64
2022/01/01 04:51:44;;;;;;;23.93;13.43;;;7.50;99.90;;;;;;4995173;28;20226;-65
2022/01/01 04:54:15;;;;;;;23.77;13.07;;;7.50;99.90;;;;;;4995131;28;20211;-66
2022/01/01 04:56:44;;;;;;;20.43;13.10;;;7.50;99.90;;;;;;4994937;28;20283;-64
2022/01/01 04:59:11;;;;;;;24.17;13.53;;;7.50;99.90;;;;;;4975328;28;20235;-67
2022/01/01 05:01:39;;;;;;;23.13;12.67;;;7.50;99.90;;;;;;4975529;28;20716;-64
2022/01/01 05:04:06;;;;;;;22.30;12.80;;;7.50;99.90;;;;;;4975481;28;20620;-64
2022/01/01 05:06:32;;;;;;;23.83;12.90;;;7.50;99.90;;;;;;4975662;28;20215;-65
2022/01/01 05:08:59;;;;;;;20.80;11.73;;;7.50;99.90;;;;;;4993162;28;20196;-63
2022/01/01 05:11:28;;;;;;;21.83;12.43;;;7.50;99.90;;;;;;4994523;28;20226;-65
2022/01/01 05:13:55;;;;;;;19.53;12.20;;;7.50;99.90;;;;;;4994749;28;20543;-66
2022/01/01 05:16:22;;;;;;;18.13;11.17;;;7.50;99.90;;;;;;4994796;28;20211;-65
2022/01/01 05:18:49;;;;;;;16.37;10.87;;;7.50;99.90;;;;;;4994417;28;20206;-65
2022/01/01 05:21:16;;;;;;;17.60;10.80;;;7.50;99.90;;;;;;4994961;28;20691;-66
2022/01/01 05:23:43;;;;;;;17.20;10.97;;;7.50;99.90;;;;;;4994441;28;20231;-65
2022/01/01 05:26:10;;;;;;;14.87;9.47;;;7.50;99.90;;;;;;4994807;28;20214;-64
2022/01/01 05:28:38;;;;;;;15.73;9.27;;;7.50;99.90;;;;;;4994179;28;20208;-65
2022/01/01 05:31:05;;;;;;;12.67;8.40;;;7.60;99.90;;;;;;4994474;28;20207;-66
2022/01/01 05:33:32;;;;;;;13.93;8.63;;;7.60;99.90;;;;;;4994616;28;20211;-65
2022/01/01 05:35:58;;;;;;;10.87;7.37;;;7.60;99.90;;;;;;4993910;28;20238;-66
2022/01/01 05:38:25;;;;;;;11.20;8.17;;;7.60;99.90;;;;;;4993975;28;20218;-67
2022/01/01 05:40:52;;;;;;;11.83;7.63;;;7.60;99.90;;;;;;4994068;28;20213;-65
2022/01/01 05:43:19;;;;;;;8.97;6.27;;;7.70;99.90;;;;;;4994464;28;20239;-65
2022/01/01 05:45:47;;;;;;;8.03;6.00;;;7.70;99.90;;;;;;4993985;28;20207;-64
2022/01/01 05:48:14;;;;;;;8.60;6.17;;;7.70;99.90;;;;;;4994401;28;20821;-66
2022/01/01 05:50:41;;;;;;;8.47;6.23;;;7.70;99.90;;;;;;4994187;28;20211;-65
2022/01/01 05:53:08;;;;;;;8.43;5.50;;;7.60;99.90;;;;;;4994369;28;20204;-65
2022/01/01 05:55:35;;;;;;;7.60;5.10;;;7.60;99.90;;;;;;4993657;28;20591;-64
2022/01/01 05:58:02;;;;;;;7.30;5.37;;;7.60;99.90;;;;;;4992970;28;20214;-64
2022/01/01 06:00:29;;;;;;;6.83;5.13;;;7.60;99.90;;;;;;4994185;28;20211;-65
2022/01/01 06:02:58;;;;;;;6.87;5.07;;;7.60;99.90;;;;;;4993679;28;20235;-65
2022/01/01 06:05:26;;;;;;;6.17;4.70;;;7.60;99.90;;;;;;4994146;28;20211;-65
2022/01/01 06:07:54;;;;;;;6.13;4.20;;;7.60;99.90;;;;;;4993708;28;20211;-64
2022/01/01 06:10:21;;;;;;;8.27;4.77;;;7.60;99.90;;;;;;4993939;28;20215;-65
2022/01/01 06:12:48;;;;;;;5.23;4.07;;;7.60;99.90;;;;;;4993666;28;20694;-66
2022/01/01 06:15:15;;;;;;;4.90;3.70;;;7.60;99.90;;;;;;4993569;28;20204;-65
2022/01/01 06:17:41;;;;;;;4.90;3.77;;;7.50;99.90;;;;;;4993464;28;20664;-64
2022/01/01 06:20:11;;;;;;;5.00;3.90;;;7.50;99.90;;;;;;4993599;28;20210;-64
2022/01/01 06:22:38;;;;;;;3.57;2.90;;;7.50;99.90;;;;;;4992533;28;20597;-66
2022/01/01 06:25:05;;;;;;;3.13;2.70;;;7.40;99.90;;;;;;4993312;28;20215;-66
2022/01/01 06:27:32;;;;;;;4.30;3.07;;;7.40;99.90;;;;;;4993150;28;20203;-65
2022/01/01 06:29:59;;;;;;;4.00;2.93;;;7.40;99.90;;;;;;4993650;28;20210;-66
2022/01/01 06:32:26;;;;;;;4.00;3.03;;;7.40;99.90;;;;;;4993138;28;20217;-66
2022/01/01 06:34:53;;;;;;;4.37;2.90;;;7.40;99.90;;;;;;4992955;28;20217;-65
2022/01/01 06:37:21;;;;;;;2.90;2.50;;;7.40;99.90;;;;;;4993095;28;20214;-66
2022/01/01 06:39:49;;;;;;;2.87;2.57;;;7.40;99.90;;;;;;4992779;28;20203;-66
2022/01/01 06:42:16;;;;;;;2.80;2.40;;;7.40;99.90;;;;;;4993394;28;20298;-65
2022/01/01 06:44:43;;;;;;;3.03;2.37;;;7.40;99.90;;;;;;4992809;28;20238;-65
2022/01/01 06:47:10;;;;;;;2.20;2.00;;;7.30;99.90;;;;;;4993206;28;20786;-66
2022/01/01 06:49:37;;;;;;;2.03;1.90;;;7.30;99.90;;;;;;4992773;28;20543;-65
2022/01/01 06:52:05;;;;;;;3.23;2.10;;;7.20;99.90;;;;;;4993186;28;20215;-65
2022/01/01 06:54:33;;;;;;;2.50;2.10;;;7.20;99.90;;;;;;4992419;28;20199;-65
2022/01/01 06:57:00;;;;;;;3.47;2.07;;;7.20;99.90;;;;;;4993097;28;20226;-67
2022/01/01 06:59:27;;;;;;;2.60;2.30;;;7.10;99.90;;;;;;4992384;28;20231;-64
2022/01/01 07:01:54;;;;;;;3.07;2.00;;;7.10;99.90;;;;;;4992393;28;20227;-65
2022/01/01 07:04:20;;;;;;;2.67;2.27;;;7.10;99.90;;;;;;4992606;28;20223;-65
2022/01/01 07:06:48;;;;;;;2.73;2.50;;;7.10;99.90;;;;;;4992855;28;20674;-64
2022/01/01 07:09:15;;;;;;;3.10;2.60;;;7.10;99.90;;;;;;4992414;28;20663;-66
2022/01/01 07:11:43;;;;;;;3.17;2.57;;;7.10;99.90;;;;;;4992481;28;20211;-66
2022/01/01 07:14:11;;;;;;;3.10;2.53;;;7.10;99.90;;;;;;4992528;28;20310;-65
2022/01/01 07:16:38;;;;;;;3.17;2.63;;;7.10;99.90;;;;;;4992241;28;20250;-67
2022/01/01 07:19:04;;;;;;;3.53;3.00;;;7.10;99.90;;;;;;4992625;28;20214;-65
2022/01/01 07:21:31;;;;;;;4.30;3.20;;;7.10;99.90;;;;;;4992390;28;20587;-64
2022/01/01 07:23:59;;;;;;;3.50;2.80;;;7.10;99.90;;;;;;4992449;28;20223;-65
2022/01/01 07:26:25;;;;;;;3.37;2.40;;;7.10;99.90;;;;;;4992286;28;20208;-65
2022/01/01 07:28:54;;;;;;;2.50;2.30;;;7.10;99.90;;;;;;4992273;28;20199;-65
2022/01/01 07:31:20;;;;;;;5.50;2.40;;;7.10;99.90;;;;;;4992553;28;20227;-65
2022/01/01 07:33:47;;;;;;;4.27;2.60;;;7.00;99.90;;;;;;4991819;28;20667;-66
2022/01/01 07:36:14;;;;;;;4.23;2.57;;;7.00;99.90;;;;;;4991524;28;20558;-65
2022/01/01 07:38:41;;;;;;;3.40;2.50;;;7.00;99.90;;;;;;4991185;28;20275;-66
2022/01/01 07:41:08;;;;;;;2.37;2.13;;;7.00;99.90;;;;;;4992229;28;20226;-67
2022/01/01 07:43:34;;;;;;;2.30;2.00;;;7.00;99.90;;;;;;4991652;28;20581;-65
2022/01/01 07:46:03;;;;;;;3.63;2.50;;;7.00;99.90;;;;;;4992163;28;20570;-65
2022/01/01 07:48:29;;;;;;;4.67;2.40;;;7.00;99.90;;;;;;4991701;28;20290;-66
2022/01/01 07:50:56;;;;;;;3.63;2.40;;;7.00;99.90;;;;;;4991813;28;20535;-65
2022/01/01 07:53:23;;;;;;;2.60;2.30;;;7.00;99.90;;;;;;4991769;28;20228;-66
2022/01/01 07:55:50;;;;;;;2.37;2.00;;;7.00;99.90;;;;;;4992025;28;20210;-65
2022/01/01 07:58:16;;;;;;;3.07;2.33;;;7.00;99.90;;;;;;4991712;28;20242;-65
2022/01/01 08:00:43;;;;;;;3.10;2.40;;;7.00;99.90;;;;;;4991243;28;20206;-66
2022/01/01 08:03:12;;;;;;;2.37;2.17;;;7.00;99.90;;;;;;4989993;28;20222;-66
2022/01/01 08:05:39;;;;;;;2.17;1.93;;;7.00;99.90;;;;;;4990446;28;20195;-66
2022/01/01 08:08:06;;;;;;;3.73;2.20;;;7.00;99.90;;;;;;4991087;28;20203;-67
2022/01/01 08:10:34;;;;;;;2.57;2.10;;;7.10;99.90;;;;;;4990533;28;20207;-66
2022/01/01 08:13:01;;;;;;;1.87;1.73;;;7.00;99.90;;;;;;4991279;28;20630;-67
2022/01/01 08:15:28;;;;;;;2.77;1.83;;;7.10;99.90;;;;;;4990653;28;20196;-69
2022/01/01 08:17:55;;;;;;;3.07;1.93;;;7.10;99.90;;;;;;4991143;28;20204;-66
2022/01/01 08:20:23;;;;;;;4.33;2.90;;;7.10;99.90;;;;;;4990765;28;20200;-66
2022/01/01 08:22:50;;;;;;;2.10;1.90;;;7.10;99.90;;;;;;4991283;28;20646;-65
2022/01/01 08:25:20;;;;;;;2.03;1.77;;;7.00;99.90;;;;;;4991068;28;20562;-65
2022/01/01 08:27:47;;;;;;;1.70;1.60;;;7.00;99.90;;;;;;4991323;28;20732;-66
2022/01/01 08:30:14;;;;;;;1.60;1.50;;;7.00;99.90;;;;;;4990939;28;20210;-65
2022/01/01 08:32:41;;;;;;;2.13;1.80;;;7.00;99.90;;;;;;4991087;28;20196;-65
2022/01/01 08:35:09;;;;;;;1.73;1.60;;;7.10;99.90;;;;;;4991084;28;20561;-65
2022/01/01 08:37:37;;;;;;;1.60;1.50;;;7.10;99.90;;;;;;4991019;28;20214;-65
2022/01/01 08:40:05;;;;;;;2.10;1.50;;;7.10;99.90;;;;;;4991085;28;20652;-65
2022/01/01 08:42:32;;;;;;;1.63;1.53;;;7.00;99.90;;;;;;4989888;28;20208;-68
2022/01/01 08:44:59;;;;;;;1.67;1.53;;;7.00;99.90;;;;;;4986508;28;20730;-66
2022/01/01 08:47:26;;;;;;;2.07;1.60;;;6.90;99.90;;;;;;4991826;28;20219;-66
2022/01/01 08:49:55;;;;;;;1.80;1.47;;;6.90;99.90;;;;;;4994415;28;20203;-67
2022/01/01 08:52:22;;;;;;;3.23;1.60;;;7.00;99.90;;;;;;4994251;28;20207;-67
2022/01/01 08:54:55;;;;;;;2.37;1.50;;;7.00;99.90;;;;;;4994262;28;20228;-66
2022/01/01 08:57:22;;;;;;;2.60;1.50;;;7.00;99.90;;;;;;4994586;28;20192;-67
2022/01/01 08:59:49;;;;;;;2.13;1.90;;;7.00;99.90;;;;;;4994823;28;20243;-68
2022/01/01 09:02:16;;;;;;;2.53;1.77;;;7.00;99.90;;;;;;4994554;28;20203;-69
2022/01/01 09:04:43;;;;;;;2.80;1.70;;;7.00;99.90;;;;;;4994641;28;20689;-66
2022/01/01 09:07:09;;;;;;;1.60;1.50;;;7.00;99.90;;;;;;4995058;28;20583;-65
2022/01/01 09:09:36;;;;;;;2.47;1.70;;;7.00;99.90;;;;;;4994798;28;20564;-66
2022/01/01 09:12:05;;;;;;;1.73;1.60;;;7.00;99.90;;;;;;4994646;28;20200;-67
2022/01/01 09:14:32;;;;;;;1.60;1.50;;;7.00;99.90;;;;;;4994642;28;20226;-68
2022/01/01 09:16:59;;;;;;;3.10;1.70;;;7.00;99.90;;;;;;4994433;28;20207;-68
2022/01/01 09:19:27;;;;;;;1.63;1.50;;;7.00;99.90;;;;;;4994294;28;20315;-66
2022/01/01 09:21:54;;;;;;;2.43;1.87;;;7.00;99.90;;;;;;4994331;28;20208;-67
2022/01/01 09:24:21;;;;;;;2.50;1.60;;;7.00;99.90;;;;;;4994493;28;20235;-67
2022/01/01 09:26:47;;;;;;;2.23;1.87;;;6.90;99.90;;;;;;4994460;28;20208;-67
2022/01/01 09:29:16;;;;;;;1.70;1.47;;;6.90;99.90;;;;;;4994451;28;20207;-68
2022/01/01 09:31:44;;;;;;;1.47;1.30;;;7.00;99.90;;;;;;4994092;28;20214;-68
2022/01/01 09:34:11;;;;;;;1.93;1.30;;;7.00;99.90;;;;;;4994314;28;20207;-67
2022/01/01 09:36:38;;;;;;;1.40;1.30;;;7.00;99.90;;;;;;4994439;28;20215;-69
2022/01/01 09:39:06;;;;;;;1.93;1.47;;;7.00;99.90;;;;;;4993788;28;20574;-67
2022/01/01 09:41:33;;;;;;;2.23;1.60;;;7.00;99.90;;;;;;4994173;28;20219;-67
2022/01/01 09:44:00;;;;;;;1.40;1.30;;;7.00;99.90;;;;;;4994326;28;20230;-65
2022/01/01 09:46:30;;;;;;;1.50;1.40;;;7.10;99.90;;;;;;4992839;28;20243;-65
2022/01/01 09:48:56;;;;;;;3.63;1.63;;;7.00;99.90;;;;;;4992708;28;20306;-66
2022/01/01 09:51:24;;;;;;;2.00;1.73;;;7.10;99.90;;;;;;4993050;28;20238;-66
2022/01/01 09:53:51;;;;;;;1.60;1.50;;;7.10;99.90;;;;;;4993837;28;20210;-66
2022/01/01 09:56:18;;;;;;;1.70;1.60;;;7.10;99.90;;;;;;4993717;28;20207;-65
2022/01/01 09:58:45;;;;;;;3.47;1.77;;;7.10;99.90;;;;;;4992809;28;20235;-67
2022/01/01 10:01:12;;;;;;;1.97;1.70;;;7.10;99.90;;;;;;4986894;28;20287;-66
2022/01/01 10:03:42;;;;;;;1.80;1.70;;;7.00;99.90;;;;;;4993533;28;20207;-67
2022/01/01 10:06:12;;;;;;;6.60;1.87;;;7.00;99.90;;;;;;4993556;28;20640;-65
2022/01/01 10:08:40;;;;;;;1.90;1.70;;;7.00;99.90;;;;;;4993869;28;20215;-67
2022/01/01 10:11:07;;;;;;;3.27;2.20;;;7.00;99.90;;;;;;4993569;28;20206;-66
2022/01/01 10:13:36;;;;;;;2.00;1.63;;;7.10;99.90;;;;;;4993091;28;20270;-67
2022/01/01 10:16:05;;;;;;;1.70;1.60;;;7.10;99.90;;;;;;4993969;28;20283;-66
2022/01/01 10:18:33;;;;;;;2.17;1.40;;;7.00;99.90;;;;;;4994074;28;20661;-65
2022/01/01 10:21:08;;;;;;;1.83;1.33;;;7.00;99.90;;;;;;4993148;28;20210;-65
2022/01/01 10:23:37;;;;;;;1.53;1.30;;;7.00;99.90;;;;;;4993119;28;20650;-66
2022/01/01 10:29:10;;;;;;;1.63;1.53;;;7.10;99.90;;;;;;4993193;28;20190;-65
2022/01/01 10:31:38;;;;;;;1.63;1.53;;;7.10;99.90;;;;;;4992867;28;20191;-65
2022/01/01 10:34:14;;;;;;;3.03;1.80;;;7.10;99.90;;;;;;4993027;28;20207;-65
2022/01/01 10:36:44;;;;;;;3.40;1.57;;;7.10;99.90;;;;;;4973751;28;20214;-65
2022/01/01 10:39:13;;;;;;;3.10;1.60;;;7.10;99.90;;;;;;4987637;28;20234;-65
2022/01/01 10:41:48;;;;;;;1.83;1.43;;;7.10;99.90;;;;;;4992417;28;20210;-66
2022/01/01 10:44:15;;;;;;;2.77;2.10;;;7.10;99.90;;;;;;4993118;28;20234;-66
2022/01/01 10:46:42;;;;;;;1.60;1.50;;;7.10;99.90;;;;;;4989843;28;20238;-66
2022/01/01 10:49:34;;;;;;;1.30;1.20;;;7.10;99.90;;;;;;4991429;28;20199;-65
2022/01/01 10:52:22;;;;;;;2.03;1.53;;;7.10;99.90;;;;;;4989389;28;20660;-66
2022/01/01 10:54:51;;;;;;;1.97;1.50;;;7.10;99.90;;;;;;4992940;28;20617;-64
2022/01/01 10:57:25;;;;;;;4.37;1.70;;;7.10;99.90;;;;;;4992171;28;20203;-65
2022/01/01 11:00:04;;;;;;;3.00;1.33;;;7.10;99.90;;;;;;4992019;28;20238;-65
2022/01/01 11:02:33;;;;;;;1.33;1.23;;;7.10;99.90;;;;;;4990246;28;20191;-67
2022/01/01 11:05:00;;;;;;;1.20;1.20;;;7.10;99.90;;;;;;4992129;28;20278;-68
2022/01/01 11:07:31;;;;;;;2.20;1.20;;;7.10;99.90;;;;;;4991996;28;20215;-67
2022/01/01 11:09:59;;;;;;;1.80;1.60;;;7.20;99.90;;;;;;4988242;28;20212;-65
2022/01/01 11:12:28;;;;;;;2.15;1.52;;;7.20;99.90;;;;;;4991450;28;20445;-66
2022/01/01 11:14:56;;;;;;;2.07;1.60;;;7.20;99.90;;;;;;4991288;28;20219;-66
2022/01/01 11:17:24;;;;;;;2.70;1.67;;;7.30;99.90;;;;;;4992004;28;20202;-66
2022/01/01 11:19:51;;;;;;;2.27;1.70;;;7.30;99.90;;;;;;4991084;28;20215;-67
2022/01/01 11:22:19;;;;;;;2.40;2.00;;;7.30;99.90;;;;;;4991378;28;20206;-66
2022/01/01 11:24:47;;;;;;;2.73;1.90;;;7.30;99.90;;;;;;4991431;28;20223;-64
2022/01/01 11:27:15;;;;;;;2.20;1.83;;;7.40;99.90;;;;;;4991116;28;20207;-67
2022/01/01 11:29:49;;;;;;;3.20;1.80;;;7.40;99.90;;;;;;4990777;28;20200;-66
2022/01/01 11:32:20;;;;;;;1.70;1.60;;;7.40;99.90;;;;;;4990070;28;20195;-64
2022/01/01 11:34:49;;;;;;;5.63;3.83;;;7.40;99.90;;;;;;4991552;28;20196;-68
2022/01/01 11:37:16;;;;;;;3.03;2.27;;;7.40;99.90;;;;;;4976204;28;20203;-66
2022/01/01 11:39:43;;;;;;;2.37;1.80;;;7.40;99.90;;;;;;4991165;28;20214;-65
2022/01/01 11:42:13;;;;;;;2.37;1.70;;;7.50;99.90;;;;;;4979601;28;20227;-65
2022/01/01 11:44:43;;;;;;;1.87;1.60;;;7.50;99.90;;;;;;4991476;28;20234;-65
2022/01/01 11:47:16;;;;;;;1.93;1.70;;;7.50;99.90;;;;;;4990606;28;20203;-65
2022/01/01 11:49:43;;;;;;;2.80;1.80;;;7.50;99.90;;;;;;4990426;28;20203;-66
2022/01/01 11:52:10;;;;;;;1.90;1.50;;;7.50;99.90;;;;;;4990694;28;20687;-65
2022/01/01 11:54:38;;;;;;;2.67;1.70;;;7.50;99.90;;;;;;4990785;28;20207;-66
2022/01/01 11:57:18;;;;;;;1.80;1.70;;;7.50;99.90;;;;;;4990401;28;20195;-65
2022/01/01 12:00:02;;;;;;;2.00;1.60;;;7.60;99.90;;;;;;4989368;28;20244;-66
2022/01/01 12:02:41;;;;;;;3.13;1.93;;;7.60;99.90;;;;;;4990061;28;20650;-65
2022/01/01 12:05:27;;;;;;;2.73;2.03;;;7.60;99.90;;;;;;4989464;28;20241;-66
2022/01/01 12:07:56;;;;;;;2.97;2.07;;;7.70;99.90;;;;;;4990681;28;20214;-67
2022/01/01 12:10:26;;;;;;;4.23;2.37;;;7.70;99.90;;;;;;4990983;28;20195;-66
2022/01/01 12:12:56;;;;;;;15.33;9.20;;;7.70;99.90;;;;;;4989302;28;20684;-65
2022/01/01 12:15:33;;;;;;;8.33;4.60;;;7.70;99.90;;;;;;4989966;28;20195;-64
2022/01/01 12:18:02;;;;;;;4.20;2.63;;;7.70;99.90;;;;;;4988369;28;20318;-65
2022/01/01 12:20:31;;;;;;;3.33;2.60;;;7.70;99.90;;;;;;4986585;28;20678;-66
2022/01/01 12:22:59;;;;;;;3.90;2.40;;;7.70;99.90;;;;;;4990999;28;20207;-64
2022/01/01 12:25:27;;;;;;;3.00;2.27;;;7.70;99.90;;;;;;4994747;28;20227;-67
2022/01/01 12:27:57;;;;;;;4.70;2.67;;;7.70;99.90;;;;;;4995211;28;20697;-67
2022/01/01 12:30:45;;;;;;;4.20;2.60;;;7.70;99.90;;;;;;4994760;28;20213;-65
2022/01/01 12:33:22;;;;;;;3.57;2.30;;;7.70;99.90;;;;;;4993188;28;20195;-68
2022/01/01 12:35:51;;;;;;;4.17;2.23;;;7.70;99.90;;;;;;4992147;28;20223;-69
2022/01/01 12:38:21;;;;;;;4.40;2.30;;;7.70;99.90;;;;;;4993067;28;20214;-67
2022/01/01 12:41:07;;;;;;;5.53;2.50;;;7.70;99.90;;;;;;4993257;28;20199;-64
2022/01/01 12:43:48;;;;;;;6.30;2.90;;;7.60;99.90;;;;;;4993010;28;20199;-65
2022/01/01 12:46:16;;;;;;;11.60;6.50;;;7.60;99.90;;;;;;4992075;28;20668;-66
2022/01/01 12:48:42;;;;;;;5.57;3.20;;;7.60;99.90;;;;;;4990735;28;20313;-66
2022/01/01 12:51:12;;;;;;;6.47;2.60;;;7.60;99.90;;;;;;4989748;28;20204;-65
2022/01/01 12:53:41;;;;;;;4.93;2.73;;;7.60;99.90;;;;;;4985420;28;20250;-66
2022/01/01 12:56:09;;;;;;;5.93;2.67;;;7.60;99.90;;;;;;4990257;28;20261;-65
2022/01/01 12:58:41;;;;;;;5.43;2.87;;;7.60;99.90;;;;;;4987678;28;20231;-66
2022/01/01 13:01:13;;;;;;;4.67;2.40;;;7.60;99.90;;;;;;4992119;28;20637;-65